Finger, Tennessee
Current Conditions -  °F | °C
As of 9:53 PM on Saturday 25 Oct 2014 (Local Time) from KMKL Reporting Station
Clear Clear  
Wind Chill: 62°   Ceiling: Unl
Heat Index: 62°   Visibility: 8mi
Dew Point: 60°   Wind: 0mph
Humidity: 93%   Direction: NA
Pressure: 30.04"   Gusts: NA
Location:  35.36°N, 88.6°W
Report Text: KMKL 260253Z 00000KT 8SM CLR 17/16 A3004 RMK AO2 SLP170 T01670156 50005
Loading
Personal Weather Stations






























Interactive Weather Map
Tropical Storm Tracking
New forecast layout! Learn more

10-Day Weather Forecast

Advertisements
Track Severe Weather on mobile